Record high temperature 35.8°C Record low temperature -23.5°C Record high gust 79.6 km/h Record high average 153.6 km/h Record daily rain 39.6 mm Record low windchill -31.0°C Record high barometer 1039.8 hPa Record low barometer 980.3 hPa
Daily high pressure 1017.1 hPa Daily low pressure 1013.9 hPa Daily low windchill 6.6°C Daily high heat index 23.4°C Daily high gust speed 15.2 kmh OSO Daily high average speed 9.6 kmh NO
Wetterdaten
LETZTE AKTUALISIERUNG UM: 15:45 DATUM: Mai 24 2019, time of next update: 16:00
Aktuelles WetterClear Aktuelle Temperatur 22.4°C (72.3°F) (Hitze-Index 22.4°C ), Apparent temp 22.2°C , Apparent temp solar 26.7°C
Höchsttemperatur (seit Mitternacht)23.4°C um: 13:56 Tiefsttemperatur (seit Mitternacht)6.6°C um: 05:34
Windgeschwindigkeit (10 Minuten )4.8 kmh (2.6 kts) Windrichtung (Dir) (10 Minuten )NNW (330°)
Hitze-Index 22.4°C Windspitzen (letzte Std)15.2 kmh (8.2 kts) um: 15:12
Windspitzen (seit Mitternacht)15.2 kmh (8.2 kts) um: 11:38 Höchstes Windmittel / Minute (seit Mitternacht)9.6 kmh (5.2 kts) um: 15:41
Regenmenge (letzte Std)0.0 mm Regenmenge (seit Mitternacht)0.0 mm (0.00 in.)---
Regenmenge diesen Monat 110.8 mm (4.36 in.) Regenmenge seit Jahresbeginn 302.4 mm (11.91 in.)
Höchste Regenmenge pro Minute (letzte Std)0.0 mm/min Höchste Regenmenge pro Stunde (letzte 6 Std)0.0 mm/stunde
Regenmenge Gestern 0.0 mm Taupunkt 9.2°C (Wet Bulb :15.3°C )
Luftfeuchtigkeit 43 %, Humidex 23.3°C Aktueller Luftdruck (auf Meereshöhe bezogen)1014.0 hPa
Luftdrucktendenz -0.1 hPa (letzte Std) Trend (letzte 1 Std)gleichbleibend
Luftdrucktendenz (letzte 12 Std)-2.3 hPa Luftdrucktendenz (letzte 6 Std)-2.0 hPa
Maximum Soil temperature (seit Mitternacht) 16.1°C Minimum Soil temperature(seit Mitternacht)14.4°C
Current Soil temperature 16°C
Current Solar 353 W/m²
Maximum solar (seit Mitternacht) 1011 W/m² Minimum solar(seit Mitternacht)0 W/m²
Current 06:44 hours of sunshine today, current sky: bewölkt
Sunshine hours for the year: 563:57 hrs Sunshine hours for the month: 112:24 hrs
Current evapotranspiration rate 4.5 mm per day. Yesterday's reading 4.1

Diese Seite wurde mit aktuellen Daten einer DAVIS VP Wetterstation erstellt. Drücken Sie bitte auf "Aktualisieren" oder "neu laden" um die neuesten Daten zu erhalten.


Animated web cam image


Weather report/warning/Metars

Stuttgart-Echterdingen, Germany (EDDS) 48-41N 009-13E 391M
May 24, 2019 - 09:20 AM EDT / 2019.05.24 1320 UTC
Wind: Variable at 3 MPH (3 KT):0
Visibility: greater than 7 mile(s):0
Temperature: 71 F (22 C)
Dew Point: 46 F (8 C)
Relative Humidity: 40%
Pressure (altimeter): 29.94 in. Hg (1014 hPa)
ob: EDDS 241320Z VRB03KT CAVOK 22/08 Q1014 NOSIG
cycle: 13
Augsburg, Germany (EDMA) 48-26N 010-56E 463M
May 24, 2019 - 09:20 AM EDT / 2019.05.24 1320 UTC
Wind: Variable at 3 MPH (3 KT):0
Visibility: greater than 7 mile(s):0
Temperature: 69 F (21 C)
Dew Point: 42 F (6 C)
Relative Humidity: 37%
Pressure (altimeter): 29.97 in. Hg (1015 hPa)
ob: EDMA 241320Z VRB03KT CAVOK 21/06 Q1015
cycle: 13
Nuernberg, Germany (EDDN) 49-30N 011-03E 318M
May 24, 2019 - 09:20 AM EDT / 2019.05.24 1320 UTC
Wind: Variable at 7 MPH (6 KT):0
Visibility: greater than 7 mile(s):0
Temperature: 71 F (22 C)
Dew Point: 44 F (7 C)
Relative Humidity: 37%
Pressure (altimeter): 29.94 in. Hg (1014 hPa)
ob: EDDN 241320Z VRB06KT CAVOK 22/07 Q1014 NOSIG
cycle: 13
Berlin-Tegel, Germany (EDDT) 52-34N 013-19E 37M
May 24, 2019 - 09:20 AM EDT / 2019.05.24 1320 UTC
Wind: from the WNW (290 degrees) at 8 MPH (7 KT) (direction variable):0
Visibility: greater than 7 mile(s):0
Temperature: 73 F (23 C)
Dew Point: 46 F (8 C)
Relative Humidity: 38%
Pressure (altimeter): 29.88 in. Hg (1012 hPa)
ob: EDDT 241320Z 29007KT 200V330 CAVOK 23/08 Q1012 NOSIG
cycle: 13
Friedrichshafen, Germany (EDNY) 47-40N 009-31E 424M
May 24, 2019 - 09:20 AM EDT / 2019.05.24 1320 UTC
Wind: from the S (170 degrees) at 6 MPH (5 KT):0
Visibility: greater than 7 mile(s):0
Temperature: 69 F (21 C)
Dew Point: 48 F (9 C)
Relative Humidity: 46%
Pressure (altimeter): 29.94 in. Hg (1014 hPa)
ob: EDNY 241320Z 17005KT CAVOK 21/09 Q1014
cycle: 13
Hamburg-Finkenwerder, Germany (EDHI) 53-32N 009-50E 13M
May 24, 2019 - 09:20 AM EDT / 2019.05.24 1320 UTC
Wind: from the NW (320 degrees) at 13 MPH (11 KT) (direction variable):0
Visibility: greater than 7 mile(s):0
Temperature: 68 F (20 C)
Dew Point: 51 F (11 C)
Relative Humidity: 56%
Pressure (altimeter): 29.85 in. Hg (1011 hPa)
ob: EDHI 241320Z 32011KT 290V350 CAVOK 20/11 Q1011
cycle: 13



Die Wetterdaten werden alle 2 Minuten gespeichert, aber die Datenübertragung findet jede Minute statt. Die beste Ansicht wird in einer Auflösung von 800 x 600 und "True colour" erzielt. Linie zeigt die relative Luftfeuchtigkeit an.

Drücken Sie bitte auf "Aktualisieren" in Ihrem Browser, um die aktuellsten Daten zu erhalten.

Klicken Sie hier, um eine Übersicht der Durchschnitts- u. Extremwerte für den Monat zu erhalten
Created by "Weather Display" software version 10.37S at this start time/date 15:10:35 23.05.2019